createdAt,value
2023-03-24T00:00:49.305Z,10.73
2023-03-24T00:03:17.947Z,12.05
2023-03-24T00:05:45.422Z,12.55
2023-03-24T00:08:13.053Z,12.32
2023-03-24T00:10:42.660Z,15.45
2023-03-24T00:13:10.185Z,12.80
2023-03-24T00:15:50.253Z,16.38
2023-03-24T00:18:18.441Z,12.52
2023-03-24T00:20:46.177Z,17.38
2023-03-24T00:23:15.469Z,40.30
2023-03-24T00:25:42.943Z,25.98
2023-03-24T00:28:11.324Z,17.83
2023-03-24T00:30:41.423Z,11.45
2023-03-24T00:33:09.883Z,11.13
2023-03-24T00:35:40.730Z,9.98
2023-03-24T00:38:09.353Z,10.32
2023-03-24T00:40:36.590Z,10.73
2023-03-24T00:43:06.903Z,10.70
2023-03-24T00:45:35.007Z,10.13
2023-03-24T00:48:06.349Z,10.15
2023-03-24T00:50:35.015Z,10.48
2023-03-24T00:53:02.529Z,10.93
2023-03-24T00:55:32.174Z,11.50
2023-03-24T00:58:01.137Z,11.85
2023-03-24T01:00:30.403Z,11.30
2023-03-24T01:02:58.507Z,14.15
2023-03-24T01:05:30.463Z,13.15
2023-03-24T01:07:58.740Z,13.88
2023-03-24T01:10:34.377Z,15.38
2023-03-24T01:13:02.210Z,13.40
2023-03-24T01:15:33.907Z,13.13
2023-03-24T01:18:04.174Z,14.27
2023-03-24T01:20:35.584Z,15.13
2023-03-24T01:23:05.278Z,16.35
2023-03-24T01:25:35.993Z,18.05
2023-03-24T01:28:03.577Z,16.92
2023-03-24T01:30:32.995Z,16.58
2023-03-24T01:33:00.597Z,13.32
2023-03-24T01:35:29.526Z,11.93
2023-03-24T01:37:57.730Z,12.55
2023-03-24T01:40:29.523Z,12.52
2023-03-24T01:42:57.563Z,12.48
2023-03-24T01:45:58.156Z,11.77
2023-03-24T01:48:31.655Z,11.13
2023-03-24T01:51:03.562Z,14.00
2023-03-24T01:53:32.491Z,12.20
2023-03-24T01:56:00.754Z,10.02
2023-03-24T01:58:28.631Z,10.60
2023-03-24T02:01:01.218Z,10.85
2023-03-24T02:03:34.023Z,12.05
2023-03-24T02:06:02.565Z,14.55
2023-03-24T02:09:02.119Z,14.02
2023-03-24T02:11:31.713Z,11.63
2023-03-24T02:14:03.469Z,11.90
2023-03-24T02:16:59.455Z,13.38
2023-03-24T02:19:41.657Z,10.82
2023-03-24T02:22:21.492Z,10.23
2023-03-24T02:25:10.111Z,12.50
2023-03-24T02:28:02.798Z,12.60
2023-03-24T02:30:51.666Z,14.82
2023-03-24T02:33:56.533Z,14.68
2023-03-24T02:36:37.799Z,17.13
2023-03-24T02:39:14.259Z,18.00
2023-03-24T02:42:15.967Z,19.80
2023-03-24T02:44:43.163Z,19.08
2023-03-24T02:47:24.789Z,17.08
2023-03-24T02:49:57.255Z,16.08
2023-03-24T02:52:45.451Z,14.15
2023-03-24T02:55:16.878Z,12.98
2023-03-24T02:58:03.547Z,12.90
2023-03-24T03:00:47.716Z,12.05
2023-03-24T03:03:24.015Z,11.60
2023-03-24T03:05:54.595Z,13.57
2023-03-24T03:08:22.146Z,15.15
2023-03-24T03:10:49.700Z,15.45
2023-03-24T03:13:34.657Z,15.07
2023-03-24T03:16:10.804Z,16.13
2023-03-24T03:18:41.534Z,16.48
2023-03-24T03:21:13.848Z,18.73
2023-03-24T03:23:48.239Z,18.85
2023-03-24T03:26:18.293Z,18.33
2023-03-24T03:28:50.241Z,16.38
2023-03-24T03:31:23.812Z,18.83
2023-03-24T03:33:55.872Z,16.95
2023-03-24T03:36:29.698Z,16.52
2023-03-24T03:39:09.617Z,16.10
2023-03-24T03:41:37.511Z,14.80
2023-03-24T03:44:05.105Z,14.07
2023-03-24T03:46:33.517Z,12.80
2023-03-24T03:49:00.836Z,14.40
2023-03-24T03:51:30.850Z,14.40
2023-03-24T03:53:59.892Z,16.08
2023-03-24T03:56:28.356Z,14.63
2023-03-24T03:58:55.701Z,14.88
2023-03-24T04:01:25.542Z,14.68
2023-03-24T04:04:05.264Z,14.48
2023-03-24T04:07:20.194Z,17.60
2023-03-24T04:10:05.947Z,15.55
2023-03-24T04:12:49.735Z,16.27
2023-03-24T04:15:35.240Z,15.63
2023-03-24T04:18:16.294Z,15.55
2023-03-24T04:21:13.042Z,16.63
2023-03-24T04:23:50.587Z,17.30
2023-03-24T04:26:27.905Z,16.67
2023-03-24T04:29:10.666Z,16.45
2023-03-24T04:31:56.175Z,17.05
2023-03-24T04:34:29.468Z,16.55
2023-03-24T04:37:02.862Z,22.17
2023-03-24T04:39:32.074Z,20.27
2023-03-24T04:42:04.583Z,19.05
2023-03-24T04:44:33.291Z,17.02
2023-03-24T04:47:01.888Z,16.42
2023-03-24T04:49:29.864Z,16.60
2023-03-24T04:51:57.072Z,14.68
2023-03-24T04:54:24.362Z,17.40
2023-03-24T04:56:55.320Z,17.02
2023-03-24T04:59:22.675Z,16.90
2023-03-24T05:01:50.296Z,17.13
2023-03-24T05:04:24.058Z,16.17
2023-03-24T05:06:52.524Z,18.48
2023-03-24T05:09:24.233Z,17.92
2023-03-24T05:12:00.457Z,16.10
2023-03-24T05:14:29.969Z,15.02
2023-03-24T05:16:57.471Z,16.80
2023-03-24T05:19:24.952Z,16.02
2023-03-24T05:21:53.717Z,15.07
2023-03-24T05:24:22.289Z,17.58
2023-03-24T05:26:50.005Z,17.08
2023-03-24T05:29:17.428Z,15.85
2023-03-24T05:31:45.197Z,16.55
2023-03-24T05:34:12.866Z,16.10
2023-03-24T05:36:40.307Z,15.70
2023-03-24T05:39:08.457Z,17.45
2023-03-24T05:41:38.735Z,14.68
2023-03-24T05:44:06.137Z,16.05
2023-03-24T05:46:33.482Z,16.60
2023-03-24T05:49:00.844Z,16.92
2023-03-24T05:51:32.450Z,17.25
2023-03-24T05:53:59.864Z,17.80
2023-03-24T05:56:28.084Z,17.05
2023-03-24T05:58:56.308Z,18.77
2023-03-24T06:01:25.380Z,18.85
2023-03-24T06:03:52.705Z,19.23
2023-03-24T06:06:20.069Z,20.75
2023-03-24T06:08:54.589Z,19.05
2023-03-24T06:11:22.676Z,19.40
2023-03-24T06:13:50.788Z,17.55
2023-03-24T06:16:23.854Z,17.23
2023-03-24T06:18:53.064Z,18.08
2023-03-24T06:21:20.702Z,17.15
2023-03-24T06:23:53.490Z,17.67
2023-03-24T06:26:21.123Z,15.70
2023-03-24T06:28:51.807Z,18.02
2023-03-24T06:31:21.559Z,17.40
2023-03-24T06:33:50.560Z,16.52
2023-03-24T06:36:18.335Z,13.50
2023-03-24T06:38:46.770Z,14.85
2023-03-24T06:41:13.947Z,12.43
2023-03-24T06:43:41.311Z,12.60
2023-03-24T06:46:10.084Z,12.55
2023-03-24T06:48:38.613Z,13.38
2023-03-24T06:51:12.121Z,10.30
2023-03-24T06:53:41.258Z,10.38
2023-03-24T06:56:17.214Z,13.77
2023-03-24T06:58:46.195Z,13.65
2023-03-24T07:01:14.854Z,12.77
2023-03-24T07:03:43.348Z,14.07
2023-03-24T07:06:10.745Z,13.43
2023-03-24T07:08:38.946Z,14.35
2023-03-24T07:11:09.682Z,13.55
2023-03-24T07:13:37.606Z,11.27
2023-03-24T07:16:05.462Z,13.93
2023-03-24T07:18:32.827Z,12.05
2023-03-24T07:21:00.321Z,11.27
2023-03-24T07:23:28.086Z,11.05
2023-03-24T07:25:55.862Z,9.45
2023-03-24T07:28:23.917Z,8.82
2023-03-24T07:30:54.892Z,8.77
2023-03-24T07:33:24.999Z,9.98
2023-03-24T07:35:57.385Z,12.38
2023-03-24T07:38:26.101Z,9.55
2023-03-24T07:40:53.414Z,7.80
2023-03-24T07:43:25.893Z,11.35
2023-03-24T07:45:57.884Z,10.82
2023-03-24T07:48:25.132Z,10.52
2023-03-24T07:50:53.383Z,10.02
2023-03-24T07:53:20.761Z,10.32
2023-03-24T07:55:48.730Z,13.10
2023-03-24T07:58:16.228Z,9.00
2023-03-24T08:00:44.741Z,9.70
2023-03-24T08:03:14.301Z,10.18
2023-03-24T08:05:42.327Z,9.45
2023-03-24T08:08:09.619Z,11.32
2023-03-24T08:10:37.105Z,9.05
2023-03-24T08:13:06.182Z,11.80
2023-03-24T08:15:33.478Z,8.27
2023-03-24T08:18:02.225Z,8.95
2023-03-24T08:20:29.632Z,9.60
2023-03-24T08:22:58.330Z,9.82
2023-03-24T08:25:26.094Z,9.85
2023-03-24T08:27:53.497Z,7.25
2023-03-24T08:30:22.164Z,7.70
2023-03-24T08:33:00.527Z,7.70
2023-03-24T08:35:32.685Z,8.88
2023-03-24T08:38:01.097Z,8.60
2023-03-24T08:40:29.191Z,7.32
2023-03-24T08:42:59.454Z,6.45
2023-03-24T08:45:28.388Z,6.70
2023-03-24T08:47:56.069Z,11.63
2023-03-24T08:50:24.290Z,8.15
2023-03-24T08:52:52.104Z,8.88
2023-03-24T08:55:19.494Z,8.50
2023-03-24T08:57:52.754Z,7.15
2023-03-24T09:00:20.955Z,6.05
2023-03-24T09:03:08.029Z,10.25
2023-03-24T09:05:54.031Z,12.60
2023-03-24T09:08:21.731Z,6.55
2023-03-24T09:10:49.092Z,9.57
2023-03-24T09:13:17.883Z,9.10
2023-03-24T09:15:49.817Z,10.10
2023-03-24T09:18:17.596Z,8.63
2023-03-24T09:20:45.071Z,8.30
2023-03-24T09:23:13.193Z,9.68
2023-03-24T09:25:40.853Z,9.90
2023-03-24T09:28:08.840Z,4.75
2023-03-24T09:30:36.411Z,10.90
2023-03-24T09:33:04.952Z,10.05
2023-03-24T09:35:32.437Z,9.48
2023-03-24T09:38:00.734Z,9.05
2023-03-24T09:40:33.093Z,7.05
2023-03-24T09:43:04.626Z,12.20
2023-03-24T09:45:34.425Z,8.00
2023-03-24T09:48:17.889Z,9.18
2023-03-24T09:51:20.770Z,11.50
2023-03-24T09:53:57.174Z,7.05
2023-03-24T09:56:25.617Z,8.63
2023-03-24T09:59:25.344Z,6.78
2023-03-24T10:01:52.577Z,9.02
2023-03-24T10:04:21.569Z,12.45
2023-03-24T10:06:53.056Z,11.00
2023-03-24T10:09:31.561Z,11.00
2023-03-24T10:12:29.747Z,8.95
2023-03-24T10:15:39.161Z,8.18
2023-03-24T10:18:34.831Z,8.15
2023-03-24T10:21:17.909Z,9.52
2023-03-24T10:24:21.572Z,10.63
2023-03-24T10:27:04.568Z,4.85
2023-03-24T10:29:34.016Z,4.90
2023-03-24T10:32:22.390Z,10.88
2023-03-24T10:34:54.494Z,7.15
2023-03-24T10:37:21.961Z,8.57
2023-03-24T10:39:49.644Z,9.52
2023-03-24T10:42:19.366Z,7.05
2023-03-24T10:44:52.298Z,4.88
2023-03-24T10:47:25.617Z,9.10
2023-03-24T10:50:12.284Z,7.70
2023-03-24T10:52:46.967Z,9.98
2023-03-24T10:55:19.294Z,11.33
2023-03-24T10:57:48.881Z,11.98
2023-03-24T11:00:29.622Z,7.90
2023-03-24T11:03:01.655Z,4.93
2023-03-24T11:05:33.770Z,9.35
2023-03-24T11:08:35.647Z,5.25
2023-03-24T11:11:29.188Z,7.35
2023-03-24T11:14:04.297Z,6.95
2023-03-24T11:16:35.861Z,4.95
2023-03-24T11:19:18.342Z,4.80
2023-03-24T11:21:46.530Z,7.05
2023-03-24T11:24:15.804Z,5.50
2023-03-24T11:27:05.310Z,8.55
2023-03-24T11:29:38.223Z,9.25
2023-03-24T11:32:13.658Z,6.93
2023-03-24T11:34:46.265Z,9.85
2023-03-24T11:37:20.582Z,7.63
2023-03-24T11:40:15.491Z,7.85
2023-03-24T11:42:47.115Z,5.43
2023-03-24T11:45:43.315Z,5.25
2023-03-24T11:48:35.850Z,8.57
2023-03-24T11:51:03.254Z,7.10
2023-03-24T11:53:48.021Z,4.78
2023-03-24T11:56:30.090Z,7.45
2023-03-24T11:59:31.935Z,4.45
2023-03-24T12:02:11.565Z,8.43
2023-03-24T12:04:42.558Z,5.75
2023-03-24T12:10:11.777Z,5.32
2023-03-24T12:13:02.682Z,6.03
2023-03-24T12:15:35.894Z,5.47
2023-03-24T12:18:09.268Z,6.97
2023-03-24T12:21:02.163Z,5.70
2023-03-24T12:23:59.163Z,7.60
2023-03-24T12:26:30.197Z,3.20
2023-03-24T12:31:43.093Z,3.72
2023-03-24T12:34:19.012Z,4.00
2023-03-24T12:36:58.201Z,8.77
2023-03-24T12:39:31.058Z,4.88
2023-03-24T12:42:10.515Z,5.13
2023-03-24T12:44:56.053Z,8.25
2023-03-24T12:47:41.633Z,7.28
2023-03-24T12:50:23.861Z,7.55
2023-03-24T12:53:08.416Z,5.40
2023-03-24T12:55:54.117Z,5.90
2023-03-24T12:58:35.853Z,3.92
2023-03-24T13:01:24.006Z,4.55
2023-03-24T13:03:58.659Z,7.90
2023-03-24T13:06:29.353Z,4.57
2023-03-24T13:09:05.855Z,10.25
2023-03-24T13:11:43.545Z,10.65
2023-03-24T13:14:14.292Z,7.90
2023-03-24T13:16:42.163Z,9.13
2023-03-24T13:19:17.189Z,5.63
2023-03-24T13:21:44.779Z,24.13
2023-03-24T13:24:14.876Z,5.82
2023-03-24T13:27:20.497Z,5.50
2023-03-24T13:30:21.345Z,4.60
2023-03-24T13:35:54.637Z,10.13
2023-03-24T13:38:34.105Z,7.75
2023-03-24T13:41:02.827Z,10.00
2023-03-24T13:43:31.203Z,6.30
2023-03-24T13:46:00.644Z,11.85
2023-03-24T13:48:31.316Z,8.55
2023-03-24T13:51:17.725Z,7.28
2023-03-24T13:53:49.983Z,7.32
2023-03-24T13:56:34.915Z,8.45
2023-03-24T13:59:02.047Z,9.95
2023-03-24T14:01:44.107Z,7.45
2023-03-24T14:04:43.598Z,10.80
2023-03-24T14:07:33.492Z,11.75
2023-03-24T14:10:14.161Z,11.82
2023-03-24T14:12:59.724Z,8.40
2023-03-24T14:15:30.022Z,10.32
2023-03-24T14:18:22.523Z,10.63
2023-03-24T14:20:55.901Z,8.07
2023-03-24T14:23:49.383Z,10.65
2023-03-24T14:26:20.061Z,11.10
2023-03-24T14:28:51.638Z,10.38
2023-03-24T14:31:24.657Z,10.10
2023-03-24T14:33:55.049Z,12.57
2023-03-24T14:36:41.348Z,9.90
2023-03-24T14:39:23.913Z,9.73
2023-03-24T14:41:52.693Z,8.80
2023-03-24T14:44:44.932Z,10.30
2023-03-24T14:47:33.990Z,7.95
2023-03-24T14:50:04.014Z,12.93
2023-03-24T14:52:32.038Z,11.60
2023-03-24T14:55:06.028Z,9.95
2023-03-24T14:57:45.002Z,11.40
2023-03-24T15:00:19.240Z,9.93
2023-03-24T15:02:48.742Z,8.30
2023-03-24T15:05:23.065Z,10.00
2023-03-24T15:08:13.660Z,10.43
2023-03-24T15:10:53.418Z,11.02
2023-03-24T15:13:40.693Z,11.93
2023-03-24T15:16:18.220Z,9.45
2023-03-24T15:19:09.483Z,8.98
2023-03-24T15:21:47.211Z,10.93
2023-03-24T15:24:24.126Z,17.52
2023-03-24T15:26:56.440Z,23.25
2023-03-24T15:29:25.570Z,19.90
2023-03-24T15:31:52.922Z,17.17
2023-03-24T15:34:37.202Z,21.23
2023-03-24T15:37:09.635Z,17.20
2023-03-24T15:39:38.163Z,16.23
2023-03-24T15:42:14.199Z,17.13
2023-03-24T15:44:41.607Z,9.52
2023-03-24T15:47:21.531Z,12.63
2023-03-24T15:49:58.997Z,12.85
2023-03-24T15:52:26.181Z,9.68
2023-03-24T15:54:55.622Z,9.63
2023-03-24T15:57:24.213Z,10.82
2023-03-24T15:59:52.576Z,10.65
2023-03-24T16:02:22.610Z,7.38
2023-03-24T16:05:00.307Z,9.75
2023-03-24T16:07:37.668Z,12.30
2023-03-24T16:10:06.345Z,11.75
2023-03-24T16:12:35.000Z,11.23
2023-03-24T16:15:06.924Z,9.82
2023-03-24T16:17:35.130Z,8.43
2023-03-24T16:20:08.833Z,9.75
2023-03-24T16:22:41.925Z,10.23
2023-03-24T16:25:09.498Z,8.48
2023-03-24T16:27:36.857Z,10.70
2023-03-24T16:30:22.323Z,7.68
2023-03-24T16:32:50.439Z,7.47
2023-03-24T16:35:18.433Z,8.45
2023-03-24T16:37:47.247Z,9.30
2023-03-24T16:40:25.681Z,8.00
2023-03-24T16:42:53.212Z,7.55
2023-03-24T16:45:20.675Z,7.45
2023-03-24T16:47:49.226Z,6.60
2023-03-24T16:50:24.871Z,7.97
2023-03-24T16:52:52.282Z,7.90
2023-03-24T16:55:20.151Z,11.50
2023-03-24T16:57:48.019Z,13.27
2023-03-24T17:00:16.117Z,9.07
2023-03-24T17:02:48.319Z,9.18
2023-03-24T17:05:24.413Z,13.18
2023-03-24T17:07:54.160Z,10.45
2023-03-24T17:10:23.200Z,8.68
2023-03-24T17:12:51.040Z,7.13
2023-03-24T17:15:25.283Z,10.15
2023-03-24T17:17:54.514Z,7.30
2023-03-24T17:20:23.843Z,9.13
2023-03-24T17:22:52.745Z,8.30
2023-03-24T17:25:22.512Z,11.10
2023-03-24T17:27:52.476Z,9.93
2023-03-24T17:30:21.629Z,8.80
2023-03-24T17:32:49.326Z,11.82
2023-03-24T17:35:21.790Z,8.70
2023-03-24T17:37:49.667Z,14.13
2023-03-24T17:40:17.996Z,14.30
2023-03-24T17:42:46.609Z,10.60
2023-03-24T17:45:16.892Z,15.30
2023-03-24T17:47:47.637Z,13.07
2023-03-24T17:50:34.758Z,13.68
2023-03-24T17:53:03.873Z,13.88
2023-03-24T17:55:31.277Z,8.45
2023-03-24T17:57:58.527Z,8.32
2023-03-24T18:00:25.982Z,9.10
2023-03-24T18:02:53.307Z,13.07
2023-03-24T18:05:24.291Z,16.00
2023-03-24T18:07:51.660Z,12.98
2023-03-24T18:10:19.089Z,17.67
2023-03-24T18:12:47.115Z,9.27
2023-03-24T18:15:15.570Z,12.27
2023-03-24T18:17:43.330Z,11.50
2023-03-24T18:20:12.182Z,11.65
2023-03-24T18:22:41.115Z,7.68
2023-03-24T18:25:13.533Z,11.15
2023-03-24T18:27:45.926Z,8.10
2023-03-24T18:30:14.611Z,7.82
2023-03-24T18:32:42.934Z,7.57
2023-03-24T18:35:11.959Z,8.00
2023-03-24T18:37:39.475Z,7.32
2023-03-24T18:40:10.049Z,7.60
2023-03-24T18:42:38.259Z,10.15
2023-03-24T18:45:06.911Z,11.40
2023-03-24T18:47:37.222Z,11.18
2023-03-24T18:50:04.932Z,9.32
2023-03-24T18:52:41.428Z,10.07
2023-03-24T18:55:09.861Z,11.82
2023-03-24T18:57:37.500Z,11.07
2023-03-24T19:00:12.205Z,12.82
2023-03-24T19:02:39.784Z,15.60
2023-03-24T19:05:07.708Z,12.75
2023-03-24T19:07:37.180Z,10.93
2023-03-24T19:10:05.349Z,10.88
2023-03-24T19:12:33.194Z,16.73
2023-03-24T19:15:04.535Z,14.85
2023-03-24T19:17:33.241Z,13.75
2023-03-24T19:20:04.947Z,8.82
2023-03-24T19:22:33.319Z,7.78
2023-03-24T19:25:01.395Z,7.68
2023-03-24T19:27:28.792Z,8.18
2023-03-24T19:29:57.082Z,9.27
2023-03-24T19:32:24.483Z,7.65
2023-03-24T19:34:53.732Z,8.50
2023-03-24T19:37:23.153Z,9.68
2023-03-24T19:39:52.904Z,8.27
2023-03-24T19:42:20.319Z,7.72
2023-03-24T19:44:47.714Z,8.00
2023-03-24T19:47:15.302Z,8.45
2023-03-24T19:49:43.077Z,8.88
2023-03-24T19:52:16.409Z,8.38
2023-03-24T19:54:44.638Z,9.23
2023-03-24T19:57:11.921Z,9.05
2023-03-24T19:59:39.497Z,9.10
2023-03-24T20:02:06.785Z,9.10
2023-03-24T20:04:34.096Z,9.27
2023-03-24T20:07:03.242Z,9.05
2023-03-24T20:09:30.763Z,10.70
2023-03-24T20:11:58.057Z,9.75
2023-03-24T20:14:25.333Z,9.95
2023-03-24T20:16:52.820Z,14.85
2023-03-24T20:19:27.960Z,18.17
2023-03-24T20:21:55.579Z,13.85
2023-03-24T20:24:23.376Z,21.55
2023-03-24T20:26:51.422Z,13.98
2023-03-24T20:29:18.918Z,12.70
2023-03-24T20:31:46.269Z,11.15
2023-03-24T20:34:16.288Z,16.38
2023-03-24T20:36:43.680Z,19.10
2023-03-24T20:39:14.394Z,18.83
2023-03-24T20:41:42.324Z,15.52
2023-03-24T20:44:10.380Z,18.67
2023-03-24T20:46:40.278Z,13.38
2023-03-24T20:49:08.632Z,15.50
2023-03-24T20:51:35.902Z,15.23
2023-03-24T20:54:03.165Z,16.10
2023-03-24T20:56:30.495Z,13.18
2023-03-24T20:58:57.727Z,13.05
2023-03-24T21:01:25.371Z,14.15
2023-03-24T21:03:53.146Z,11.00
2023-03-24T21:06:20.852Z,12.38
2023-03-24T21:08:48.556Z,10.10
2023-03-24T21:11:20.352Z,11.40
2023-03-24T21:13:48.120Z,10.23
2023-03-24T21:16:19.530Z,9.80
2023-03-24T21:18:49.363Z,9.55
2023-03-24T21:21:17.086Z,10.07
2023-03-24T21:23:44.375Z,10.05
2023-03-24T21:26:15.260Z,10.38
2023-03-24T21:28:43.065Z,10.48
2023-03-24T21:31:18.783Z,10.63
2023-03-24T21:33:46.155Z,10.85
2023-03-24T21:36:13.787Z,9.57
2023-03-24T21:38:42.170Z,9.88
2023-03-24T21:41:09.648Z,11.77
2023-03-24T21:43:37.458Z,10.05
2023-03-24T21:46:04.848Z,9.30
2023-03-24T21:48:40.088Z,10.90
2023-03-24T21:51:07.796Z,10.77
2023-03-24T21:53:35.197Z,9.75
2023-03-24T21:56:05.530Z,11.38
2023-03-24T21:58:33.568Z,11.35
2023-03-24T22:01:01.494Z,12.15
2023-03-24T22:03:30.609Z,11.80
2023-03-24T22:05:58.045Z,12.20
2023-03-24T22:08:26.922Z,10.60
2023-03-24T22:10:58.113Z,10.95
2023-03-24T22:13:29.905Z,10.18
2023-03-24T22:18:27.014Z,10.25
2023-03-24T22:20:55.964Z,9.95
2023-03-24T22:23:23.474Z,10.45
2023-03-24T22:25:52.350Z,10.25
2023-03-24T22:28:23.962Z,10.27
2023-03-24T22:30:51.215Z,10.05
2023-03-24T22:33:18.777Z,9.88
2023-03-24T22:35:46.317Z,10.15
2023-03-24T22:38:16.104Z,11.18
2023-03-24T22:40:44.409Z,10.93
2023-03-24T22:43:12.332Z,10.85
2023-03-24T22:45:39.602Z,11.13
2023-03-24T22:48:06.920Z,9.73
2023-03-24T22:50:34.628Z,10.30
2023-03-24T22:53:01.903Z,9.73
2023-03-24T22:55:30.352Z,10.75
2023-03-24T22:57:57.563Z,10.90
2023-03-24T23:00:27.274Z,9.50
2023-03-24T23:02:56.461Z,10.60
2023-03-24T23:05:23.748Z,10.15
2023-03-24T23:07:52.189Z,11.10
2023-03-24T23:10:20.121Z,9.77
2023-03-24T23:12:54.322Z,11.25
2023-03-24T23:15:42.628Z,10.25
2023-03-24T23:18:10.863Z,9.45
2023-03-24T23:20:38.323Z,9.13
2023-03-24T23:23:07.097Z,11.00
2023-03-24T23:25:44.793Z,10.90
2023-03-24T23:28:13.679Z,11.20
2023-03-24T23:30:41.363Z,10.82
2023-03-24T23:33:09.175Z,10.43
2023-03-24T23:35:37.583Z,11.40
2023-03-24T23:38:08.588Z,11.82
2023-03-24T23:40:36.192Z,11.18
2023-03-24T23:43:03.702Z,11.85
2023-03-24T23:45:32.968Z,11.23
2023-03-24T23:48:00.539Z,10.32
2023-03-24T23:50:29.255Z,11.27
2023-03-24T23:53:16.512Z,11.45
2023-03-24T23:58:24.888Z,10.93
